Terminal Aerodrome Forecast
Issued by NWS Sterling, VA

Current Version | Previous Version | Graphics & Text | Print | Product List | Glossary On
Versions: 1 2 3 4 5 6 7 8 9 10 11 12 13 14 15 16 17 18 19 20 21 22 23 24 25 26 27 28
000
FTUS41 KLWX 232229 AAB
TAFIAD
TAF AMD
KIAD 232229Z 2322/2424 36013G20KT 2SM -DZ OVC006
     FM240000 36013G20KT 1SM -RA OVC004
     FM240400 35010KT 1SM -SHRA OVC003
     FM240600 34010KT P6SM OVC008
     FM241200 32011KT P6SM OVC025
     FM241900 31014G24KT P6SM BKN025
     FM242100 31014G23KT P6SM SCT050=

USA.gov is the U.S. government's official web portal to all federal, state and local government web resources and services.